createdAt,value
2022-10-12T00:02:25.580Z,79.19
2022-10-12T00:04:52.470Z,79.42
2022-10-12T00:07:19.479Z,79.61
2022-10-12T00:09:46.368Z,79.38
2022-10-12T00:12:13.453Z,79.65
2022-10-12T00:14:40.561Z,79.65
2022-10-12T00:17:07.431Z,79.74
2022-10-12T00:19:34.341Z,79.80
2022-10-12T00:22:01.824Z,80.15
2022-10-12T00:24:28.731Z,79.78
2022-10-12T00:26:55.910Z,80.04
2022-10-12T00:29:22.696Z,79.92
2022-10-12T00:31:49.522Z,80.13
2022-10-12T00:34:16.444Z,80.11
2022-10-12T00:36:43.495Z,80.10
2022-10-12T00:39:11.541Z,80.23
2022-10-12T00:41:44.424Z,80.07
2022-10-12T00:44:42.229Z,80.04
2022-10-12T00:47:27.572Z,79.99
2022-10-12T00:50:28.313Z,80.13
2022-10-12T00:53:12.320Z,80.08
2022-10-12T00:55:47.132Z,80.05
2022-10-12T00:58:14.396Z,80.33
2022-10-12T01:00:42.405Z,80.49
2022-10-12T01:03:15.005Z,80.55
2022-10-12T01:05:42.037Z,80.55
2022-10-12T01:08:09.044Z,80.62
2022-10-12T01:10:35.861Z,80.63
2022-10-12T01:13:02.973Z,80.65
2022-10-12T01:15:36.265Z,80.79
2022-10-12T01:18:12.243Z,80.76
2022-10-12T01:21:16.344Z,80.93
2022-10-12T01:24:10.195Z,80.77
2022-10-12T01:27:03.169Z,80.78
2022-10-12T01:30:07.452Z,80.73
2022-10-12T01:32:46.730Z,80.73
2022-10-12T01:35:46.589Z,80.51
2022-10-12T01:38:34.293Z,80.56
2022-10-12T01:41:23.828Z,80.38
2022-10-12T01:43:52.025Z,80.54
2022-10-12T01:46:18.716Z,80.65
2022-10-12T01:48:50.418Z,80.42
2022-10-12T01:51:28.345Z,80.36
2022-10-12T01:54:26.477Z,80.29
2022-10-12T01:57:09.179Z,80.39
2022-10-12T01:59:55.684Z,80.70
2022-10-12T02:02:59.999Z,80.74
2022-10-12T02:05:37.305Z,80.96
2022-10-12T02:08:26.433Z,80.94
2022-10-12T02:11:12.196Z,80.86
2022-10-12T02:13:51.742Z,81.07
2022-10-12T02:16:23.072Z,81.04
2022-10-12T02:18:54.934Z,81.26
2022-10-12T02:21:27.575Z,81.07
2022-10-12T02:23:57.778Z,81.32
2022-10-12T02:26:25.405Z,81.12
2022-10-12T02:28:52.827Z,81.00
2022-10-12T02:31:36.632Z,81.06
2022-10-12T02:34:14.121Z,80.97
2022-10-12T02:36:52.037Z,81.07
2022-10-12T02:39:26.057Z,81.17
2022-10-12T02:42:02.562Z,81.20
2022-10-12T02:44:34.470Z,81.12
2022-10-12T02:47:04.592Z,81.28
2022-10-12T02:49:34.701Z,81.02
2022-10-12T02:52:04.694Z,81.21
2022-10-12T02:54:31.999Z,81.30
2022-10-12T02:56:58.956Z,81.27
2022-10-12T02:59:26.264Z,81.10
2022-10-12T03:01:53.379Z,81.21
2022-10-12T03:04:20.396Z,81.19
2022-10-12T03:06:47.171Z,81.39
2022-10-12T03:09:14.564Z,81.30
2022-10-12T03:11:44.874Z,81.09
2022-10-12T03:14:16.926Z,81.29
2022-10-12T03:16:46.409Z,81.28
2022-10-12T03:19:13.592Z,81.23
2022-10-12T03:21:40.893Z,81.29
2022-10-12T03:24:08.020Z,81.24
2022-10-12T03:26:35.024Z,81.11
2022-10-12T03:29:01.896Z,81.18
2022-10-12T03:31:28.671Z,81.08
2022-10-12T03:33:55.451Z,81.09
2022-10-12T03:36:22.227Z,81.03
2022-10-12T03:38:49.178Z,81.39
2022-10-12T03:41:15.946Z,81.36
2022-10-12T03:43:42.729Z,81.29
2022-10-12T03:46:09.637Z,81.23
2022-10-12T03:48:36.417Z,81.10
2022-10-12T03:51:03.568Z,81.27
2022-10-12T03:53:31.419Z,81.17
2022-10-12T03:55:58.679Z,81.21
2022-10-12T03:58:25.637Z,81.19
2022-10-12T04:00:56.155Z,81.30
2022-10-12T04:03:23.128Z,81.20
2022-10-12T04:05:57.645Z,81.24
2022-10-12T04:08:26.931Z,81.40
2022-10-12T04:10:53.740Z,81.46
2022-10-12T04:13:20.913Z,81.36
2022-10-12T04:15:47.757Z,81.31
2022-10-12T04:18:14.701Z,81.35
2022-10-12T04:20:41.806Z,81.67
2022-10-12T04:23:08.647Z,81.57
2022-10-12T04:25:35.481Z,81.62
2022-10-12T04:28:02.281Z,81.76
2022-10-12T04:30:29.488Z,81.54
2022-10-12T04:32:56.518Z,81.74
2022-10-12T04:35:23.533Z,81.95
2022-10-12T04:37:50.613Z,81.88
2022-10-12T04:40:17.692Z,82.04
2022-10-12T04:42:44.444Z,82.23
2022-10-12T04:45:11.438Z,81.98
2022-10-12T04:47:38.478Z,82.04
2022-10-12T04:50:06.581Z,82.03
2022-10-12T04:52:33.397Z,82.18
2022-10-12T04:55:00.319Z,82.12
2022-10-12T04:57:27.088Z,82.00
2022-10-12T04:59:54.065Z,82.00
2022-10-12T05:02:20.851Z,82.14
2022-10-12T05:04:47.618Z,82.06
2022-10-12T05:07:14.461Z,81.86
2022-10-12T05:09:41.269Z,82.07
2022-10-12T05:12:08.121Z,82.66
2022-10-12T05:14:35.925Z,82.70
2022-10-12T05:17:03.436Z,82.98
2022-10-12T05:19:30.486Z,83.20
2022-10-12T05:21:57.369Z,83.38
2022-10-12T05:24:24.248Z,83.74
2022-10-12T05:26:51.421Z,83.40
2022-10-12T05:29:18.267Z,83.24
2022-10-12T05:31:45.114Z,83.33
2022-10-12T05:34:11.958Z,83.26
2022-10-12T05:36:38.743Z,83.12
2022-10-12T05:39:05.585Z,83.29
2022-10-12T05:41:32.390Z,83.43
2022-10-12T05:43:59.193Z,83.21
2022-10-12T05:46:26.290Z,83.20
2022-10-12T05:48:53.046Z,83.43
2022-10-12T05:51:19.919Z,83.39
2022-10-12T05:53:46.744Z,83.28
2022-10-12T05:56:13.850Z,83.28
2022-10-12T05:58:40.890Z,83.38
2022-10-12T06:01:13.349Z,83.45
2022-10-12T06:03:40.625Z,83.58
2022-10-12T06:06:09.003Z,83.63
2022-10-12T06:08:36.366Z,83.48
2022-10-12T06:11:03.590Z,83.49
2022-10-12T06:13:30.557Z,83.49
2022-10-12T06:15:57.834Z,83.82
2022-10-12T06:18:24.692Z,84.05
2022-10-12T06:21:21.118Z,84.21
2022-10-12T06:23:41.932Z,84.77
2022-10-12T06:26:08.701Z,84.85
2022-10-12T06:28:35.871Z,84.96
2022-10-12T06:31:02.722Z,84.96
2022-10-12T06:33:29.673Z,85.31
2022-10-12T06:35:56.564Z,85.38
2022-10-12T06:38:23.777Z,85.58
2022-10-12T06:40:50.715Z,85.30
2022-10-12T06:43:17.560Z,85.75
2022-10-12T06:45:44.401Z,85.56
2022-10-12T06:48:16.150Z,85.44
2022-10-12T06:50:45.150Z,85.58
2022-10-12T06:53:11.978Z,85.50
2022-10-12T06:55:41.914Z,85.64
2022-10-12T06:58:08.750Z,85.65
2022-10-12T07:00:36.322Z,86.26
2022-10-12T07:03:03.796Z,85.87
2022-10-12T07:05:30.637Z,85.76
2022-10-12T07:07:57.552Z,85.88
2022-10-12T07:10:25.372Z,85.88
2022-10-12T07:12:52.195Z,85.78
2022-10-12T07:15:19.201Z,85.80
2022-10-12T07:17:45.985Z,86.02
2022-10-12T07:20:12.969Z,85.96
2022-10-12T07:22:39.880Z,86.66
2022-10-12T07:25:10.827Z,86.20
2022-10-12T07:27:38.023Z,85.91
2022-10-12T07:30:05.934Z,86.10
2022-10-12T07:32:32.737Z,86.06
2022-10-12T07:34:59.580Z,86.19
2022-10-12T07:37:26.461Z,86.55
2022-10-12T07:39:57.360Z,86.07
2022-10-12T07:42:25.567Z,85.68
2022-10-12T07:44:52.693Z,85.87
2022-10-12T07:47:19.676Z,85.74
2022-10-12T07:49:46.574Z,85.34
2022-10-12T07:52:13.565Z,85.48
2022-10-12T07:54:40.347Z,85.13
2022-10-12T07:57:07.589Z,85.35
2022-10-12T07:59:34.429Z,85.13
2022-10-12T08:02:01.285Z,84.89
2022-10-12T08:04:28.088Z,84.57
2022-10-12T08:06:55.504Z,84.71
2022-10-12T08:09:22.356Z,84.44
2022-10-12T08:11:49.299Z,83.89
2022-10-12T08:14:18.260Z,83.86
2022-10-12T08:16:45.720Z,83.38
2022-10-12T08:19:15.616Z,83.27
2022-10-12T08:21:43.021Z,83.26
2022-10-12T08:24:11.228Z,82.96
2022-10-12T08:26:38.959Z,82.95
2022-10-12T08:29:08.351Z,82.87
2022-10-12T08:31:35.807Z,82.88
2022-10-12T08:34:03.779Z,83.11
2022-10-12T08:36:31.049Z,82.85
2022-10-12T08:38:58.191Z,83.42
2022-10-12T08:41:52.448Z,82.89
2022-10-12T08:44:39.282Z,82.94
2022-10-12T08:47:42.236Z,82.97
2022-10-12T08:50:24.037Z,82.90
2022-10-12T08:53:23.551Z,83.00
2022-10-12T08:55:52.783Z,82.74
2022-10-12T08:58:28.423Z,82.80
2022-10-12T09:01:25.564Z,82.75
2022-10-12T09:04:15.711Z,82.86
2022-10-12T09:07:01.925Z,82.75
2022-10-12T09:10:13.204Z,82.64
2022-10-12T09:13:14.145Z,82.74
2022-10-12T09:16:00.941Z,82.78
2022-10-12T09:18:44.154Z,82.37
2022-10-12T09:21:20.984Z,82.26
2022-10-12T09:23:48.622Z,82.49
2022-10-12T09:26:26.573Z,82.43
2022-10-12T09:28:58.376Z,82.74
2022-10-12T09:31:43.949Z,82.74
2022-10-12T09:34:13.468Z,83.03
2022-10-12T09:36:42.615Z,82.80
2022-10-12T09:39:33.245Z,83.02
2022-10-12T09:42:00.217Z,82.81
2022-10-12T09:44:32.125Z,82.92
2022-10-12T09:47:02.215Z,82.78
2022-10-12T09:49:48.136Z,82.54
2022-10-12T09:52:21.032Z,82.16
2022-10-12T09:54:54.316Z,82.38
2022-10-12T09:57:26.395Z,82.04
2022-10-12T09:59:53.484Z,81.74
2022-10-12T10:02:23.824Z,81.38
2022-10-12T10:04:52.202Z,80.71
2022-10-12T10:07:30.951Z,80.17
2022-10-12T10:10:30.476Z,79.89
2022-10-12T10:13:01.757Z,79.27
2022-10-12T10:15:36.412Z,78.77
2022-10-12T10:18:08.925Z,78.55
2022-10-12T10:20:59.923Z,78.53
2022-10-12T10:23:44.349Z,78.36
2022-10-12T10:29:39.169Z,77.86
2022-10-12T10:32:29.322Z,76.60
2022-10-12T10:35:06.983Z,77.01
2022-10-12T10:37:34.134Z,75.72
2022-10-12T10:40:02.413Z,75.59
2022-10-12T10:42:34.320Z,75.70
2022-10-12T10:45:07.161Z,75.70
2022-10-12T10:47:43.788Z,75.02
2022-10-12T10:50:29.405Z,74.78
2022-10-12T10:53:03.999Z,75.26
2022-10-12T10:55:45.043Z,75.17
2022-10-12T10:58:46.826Z,73.80
2022-10-12T11:01:33.239Z,74.31
2022-10-12T11:04:06.268Z,73.27
2022-10-12T11:06:46.012Z,73.09
2022-10-12T11:09:21.764Z,72.58
2022-10-12T11:11:57.719Z,73.14
2022-10-12T11:14:39.245Z,72.43
2022-10-12T11:17:16.299Z,72.74
2022-10-12T11:20:07.512Z,72.85
2022-10-12T11:23:03.523Z,73.03
2022-10-12T11:26:01.906Z,73.74
2022-10-12T11:28:33.089Z,73.41
2022-10-12T11:31:01.945Z,73.85
2022-10-12T11:33:42.124Z,73.93
2022-10-12T11:36:15.085Z,74.02
2022-10-12T11:38:53.188Z,74.30
2022-10-12T11:41:35.822Z,74.53
2022-10-12T11:44:20.746Z,74.77
2022-10-12T11:47:01.240Z,75.29
2022-10-12T11:49:54.399Z,76.04
2022-10-12T11:52:27.880Z,76.40
2022-10-12T11:54:59.020Z,76.69
2022-10-12T11:57:31.772Z,77.12
2022-10-12T12:00:19.667Z,77.65
2022-10-12T12:02:56.220Z,78.19
2022-10-12T12:05:23.581Z,78.31
2022-10-12T12:08:02.994Z,78.68
2022-10-12T12:10:31.990Z,78.42
2022-10-12T12:13:12.838Z,78.82
2022-10-12T12:15:43.213Z,78.44
2022-10-12T12:18:20.226Z,78.64
2022-10-12T12:20:46.988Z,78.68
2022-10-12T12:23:25.823Z,78.88
2022-10-12T12:26:16.021Z,79.18
2022-10-12T12:29:11.188Z,79.47
2022-10-12T12:31:38.606Z,79.80
2022-10-12T12:34:16.403Z,80.44
2022-10-12T12:36:50.218Z,80.80
2022-10-12T12:39:34.667Z,80.73
2022-10-12T12:42:04.226Z,80.66
2022-10-12T12:44:34.034Z,80.72
2022-10-12T12:47:00.841Z,80.43
2022-10-12T12:49:55.114Z,81.38
2022-10-12T12:52:29.571Z,81.48
2022-10-12T12:55:15.037Z,81.14
2022-10-12T12:57:55.578Z,80.61
2022-10-12T13:00:25.538Z,80.27
2022-10-12T13:03:26.370Z,79.93
2022-10-12T13:07:03.116Z,79.04
2022-10-12T13:09:59.785Z,78.66
2022-10-12T13:13:03.908Z,78.52
2022-10-12T13:16:00.456Z,77.60
2022-10-12T13:19:01.571Z,76.11
2022-10-12T13:21:42.161Z,75.57
2022-10-12T13:24:19.427Z,75.97
2022-10-12T13:26:51.521Z,75.52
2022-10-12T13:29:52.838Z,75.22
2022-10-12T13:32:46.097Z,74.74
2022-10-12T13:35:27.479Z,74.50
2022-10-12T13:38:05.269Z,74.14
2022-10-12T13:40:50.692Z,74.38
2022-10-12T13:43:43.031Z,73.69
2022-10-12T13:46:35.599Z,73.83
2022-10-12T13:49:09.434Z,73.62
2022-10-12T13:51:36.238Z,73.58
2022-10-12T13:54:14.715Z,73.33
2022-10-12T13:56:41.965Z,73.24
2022-10-12T13:59:21.647Z,73.07
2022-10-12T14:02:01.788Z,73.35
2022-10-12T14:04:34.904Z,72.86
2022-10-12T14:07:07.777Z,72.90
2022-10-12T14:09:48.433Z,73.02
2022-10-12T14:12:16.492Z,73.11
2022-10-12T14:14:45.646Z,73.61
2022-10-12T14:17:20.455Z,74.15
2022-10-12T14:19:53.389Z,74.98
2022-10-12T14:22:25.512Z,74.91
2022-10-12T14:25:17.032Z,75.51
2022-10-12T14:27:44.437Z,75.98
2022-10-12T14:30:36.911Z,76.61
2022-10-12T14:33:22.985Z,77.08
2022-10-12T14:35:51.863Z,77.57
2022-10-12T14:38:45.947Z,79.12
2022-10-12T14:41:34.630Z,78.84
2022-10-12T14:44:29.194Z,79.81
2022-10-12T14:47:06.274Z,80.23
2022-10-12T14:49:45.471Z,79.96
2022-10-12T14:52:42.188Z,80.86
2022-10-12T14:55:28.241Z,80.88
2022-10-12T14:57:56.009Z,81.29
2022-10-12T15:00:30.060Z,81.26
2022-10-12T15:02:57.948Z,81.81
2022-10-12T15:05:29.108Z,81.89
2022-10-12T15:07:55.974Z,81.94
2022-10-12T15:10:24.536Z,81.87
2022-10-12T15:12:52.408Z,81.88
2022-10-12T15:15:43.620Z,82.43
2022-10-12T15:18:10.700Z,82.16
2022-10-12T15:20:39.071Z,82.35
2022-10-12T15:23:06.028Z,82.63
2022-10-12T15:25:35.774Z,82.75
2022-10-12T15:28:03.725Z,82.67
2022-10-12T15:30:32.199Z,82.83
2022-10-12T15:32:59.240Z,82.80
2022-10-12T15:35:29.468Z,83.01
2022-10-12T15:37:56.624Z,83.08
2022-10-12T15:40:24.926Z,83.37
2022-10-12T15:42:52.035Z,83.20
2022-10-12T15:45:27.673Z,83.03
2022-10-12T15:47:55.209Z,83.26
2022-10-12T15:50:29.196Z,83.20
2022-10-12T15:52:57.583Z,83.37
2022-10-12T15:55:28.402Z,83.04
2022-10-12T15:57:56.647Z,83.24
2022-10-12T16:00:27.956Z,83.37
2022-10-12T16:02:56.909Z,83.16
2022-10-12T16:05:27.720Z,83.09
2022-10-12T16:07:55.371Z,82.84
2022-10-12T16:10:27.036Z,83.00
2022-10-12T16:12:55.590Z,82.89
2022-10-12T16:15:29.582Z,82.67
2022-10-12T16:17:56.544Z,82.34
2022-10-12T16:20:23.727Z,82.27
2022-10-12T16:22:51.524Z,82.36
2022-10-12T16:25:23.981Z,82.38
2022-10-12T16:27:53.372Z,81.95
2022-10-12T16:30:22.286Z,81.67
2022-10-12T16:32:49.541Z,81.51
2022-10-12T16:35:17.073Z,81.89
2022-10-12T16:37:44.249Z,82.13
2022-10-12T16:40:12.261Z,81.91
2022-10-12T16:42:39.679Z,82.02
2022-10-12T16:45:07.546Z,82.18
2022-10-12T16:47:37.735Z,82.23
2022-10-12T16:50:08.134Z,82.00
2022-10-12T16:52:34.913Z,82.13
2022-10-12T16:55:01.790Z,82.12
2022-10-12T16:57:28.688Z,81.97
2022-10-12T16:59:55.779Z,82.05
2022-10-12T17:02:22.730Z,81.97
2022-10-12T17:04:49.497Z,81.95
2022-10-12T17:07:17.071Z,81.85
2022-10-12T17:09:44.190Z,82.00
2022-10-12T17:12:11.013Z,82.15
2022-10-12T17:14:38.245Z,82.31
2022-10-12T17:17:05.864Z,82.16
2022-10-12T17:19:37.543Z,82.24
2022-10-12T17:22:06.900Z,82.65
2022-10-12T17:24:36.961Z,82.90
2022-10-12T17:27:06.425Z,82.97
2022-10-12T17:29:36.534Z,83.39
2022-10-12T17:32:04.421Z,83.51
2022-10-12T17:34:35.962Z,83.76
2022-10-12T17:37:04.638Z,84.02
2022-10-12T17:39:36.602Z,84.66
2022-10-12T17:42:04.789Z,85.11
2022-10-12T17:44:32.180Z,85.35
2022-10-12T17:46:59.168Z,85.43
2022-10-12T17:49:28.445Z,85.61
2022-10-12T17:51:55.486Z,85.84
2022-10-12T17:54:25.225Z,86.18
2022-10-12T17:56:53.064Z,86.45
2022-10-12T17:59:20.188Z,86.55
2022-10-12T18:01:48.625Z,86.70
2022-10-12T18:04:16.089Z,86.38
2022-10-12T18:06:43.191Z,87.71
2022-10-12T18:09:10.634Z,87.31
2022-10-12T18:11:39.404Z,87.56
2022-10-12T18:14:09.647Z,88.07
2022-10-12T18:16:37.534Z,88.01
2022-10-12T18:19:07.012Z,87.96
2022-10-12T18:21:35.007Z,88.20
2022-10-12T18:24:06.913Z,88.08
2022-10-12T18:26:34.041Z,88.32
2022-10-12T18:29:02.632Z,88.46
2022-10-12T18:31:30.745Z,88.61
2022-10-12T18:33:58.235Z,88.78
2022-10-12T18:36:26.829Z,88.80
2022-10-12T18:38:54.912Z,89.25
2022-10-12T18:41:25.915Z,89.34
2022-10-12T18:44:02.581Z,89.46
2022-10-12T18:46:33.703Z,89.13
2022-10-12T18:49:05.272Z,89.12
2022-10-12T18:51:35.993Z,89.10
2022-10-12T18:54:04.273Z,89.22
2022-10-12T18:56:34.513Z,89.57
2022-10-12T18:59:02.374Z,89.61
2022-10-12T19:01:31.500Z,89.69
2022-10-12T19:04:00.620Z,89.82
2022-10-12T19:06:35.042Z,89.92
2022-10-12T19:09:02.600Z,89.84
2022-10-12T19:11:29.958Z,89.76
2022-10-12T19:14:07.214Z,89.40
2022-10-12T19:16:35.489Z,89.34
2022-10-12T19:19:14.812Z,89.89
2022-10-12T19:21:45.357Z,89.61
2022-10-12T19:24:15.376Z,89.56
2022-10-12T19:26:43.513Z,89.69
2022-10-12T19:29:10.595Z,89.90
2022-10-12T19:31:43.379Z,89.91
2022-10-12T19:34:13.511Z,90.04
2022-10-12T19:36:41.821Z,90.26
2022-10-12T19:39:16.361Z,90.20
2022-10-12T19:41:43.371Z,90.49
2022-10-12T19:44:12.914Z,90.41
2022-10-12T19:46:42.867Z,90.39
2022-10-12T19:49:13.884Z,91.05
2022-10-12T19:51:40.957Z,90.45
2022-10-12T19:54:09.946Z,90.36
2022-10-12T19:56:37.350Z,90.86
2022-10-12T19:59:04.348Z,90.77
2022-10-12T20:01:39.645Z,90.71
2022-10-12T20:04:12.095Z,90.81
2022-10-12T20:06:39.383Z,90.59
2022-10-12T20:09:07.912Z,90.30
2022-10-12T20:11:35.264Z,90.55
2022-10-12T20:14:02.621Z,90.33
2022-10-12T20:16:34.001Z,90.21
2022-10-12T20:19:02.088Z,89.97
2022-10-12T20:21:29.116Z,90.33
2022-10-12T20:23:56.028Z,89.94
2022-10-12T20:26:25.641Z,89.84
2022-10-12T20:28:54.366Z,89.80
2022-10-12T20:31:24.072Z,89.76
2022-10-12T20:33:56.107Z,90.05
2022-10-12T20:36:30.246Z,89.69
2022-10-12T20:38:58.722Z,89.75
2022-10-12T20:41:27.753Z,89.50
2022-10-12T20:44:00.104Z,89.36
2022-10-12T20:46:28.338Z,89.37
2022-10-12T20:49:01.129Z,89.49
2022-10-12T20:51:34.689Z,89.55
2022-10-12T20:54:03.813Z,89.63
2022-10-12T20:56:33.118Z,89.46
2022-10-12T20:59:00.533Z,89.25
2022-10-12T21:01:28.552Z,89.37
2022-10-12T21:03:56.011Z,89.36
2022-10-12T21:06:23.959Z,89.35
2022-10-12T21:08:54.240Z,89.49
2022-10-12T21:11:23.729Z,89.55
2022-10-12T21:13:50.673Z,89.56
2022-10-12T21:16:18.364Z,89.48
2022-10-12T21:18:45.269Z,89.40
2022-10-12T21:21:16.361Z,89.43
2022-10-12T21:23:50.468Z,89.53
2022-10-12T21:26:20.002Z,89.39
2022-10-12T21:28:47.778Z,89.40
2022-10-12T21:31:15.778Z,89.41
2022-10-12T21:33:43.362Z,89.37
2022-10-12T21:36:12.326Z,89.53
2022-10-12T21:38:41.296Z,89.53
2022-10-12T21:41:09.500Z,89.61
2022-10-12T21:43:37.748Z,89.54
2022-10-12T21:46:07.947Z,89.51
2022-10-12T21:48:36.323Z,89.69
2022-10-12T21:51:05.469Z,89.45
2022-10-12T21:53:32.630Z,89.64
2022-10-12T21:55:59.389Z,89.59
2022-10-12T21:58:26.142Z,89.62
2022-10-12T22:00:52.986Z,89.71
2022-10-12T22:03:20.045Z,89.67
2022-10-12T22:05:47.144Z,89.65
2022-10-12T22:08:13.961Z,89.61
2022-10-12T22:10:40.801Z,89.52
2022-10-12T22:13:08.168Z,89.58
2022-10-12T22:15:35.615Z,89.68
2022-10-12T22:18:02.820Z,89.69
2022-10-12T22:20:29.627Z,89.82
2022-10-12T22:22:56.398Z,89.68
2022-10-12T22:25:23.599Z,89.62
2022-10-12T22:27:50.437Z,89.79
2022-10-12T22:30:17.285Z,89.53
2022-10-12T22:32:44.031Z,89.72
2022-10-12T22:35:10.870Z,89.59
2022-10-12T22:37:37.979Z,89.83
2022-10-12T22:40:05.685Z,89.91
2022-10-12T22:42:32.473Z,89.58
2022-10-12T22:44:59.572Z,89.65
2022-10-12T22:47:26.348Z,89.70
2022-10-12T22:49:53.404Z,89.78
2022-10-12T22:52:20.666Z,89.75
2022-10-12T22:54:47.868Z,89.80
2022-10-12T22:57:14.837Z,89.93
2022-10-12T22:59:42.020Z,89.74
2022-10-12T23:02:08.837Z,89.81
2022-10-12T23:04:35.741Z,89.99
2022-10-12T23:07:02.505Z,90.16
2022-10-12T23:09:29.388Z,90.18
2022-10-12T23:11:56.696Z,89.92
2022-10-12T23:14:23.479Z,89.61
2022-10-12T23:16:50.638Z,90.00
2022-10-12T23:19:17.448Z,90.22
2022-10-12T23:21:44.269Z,89.94
2022-10-12T23:24:13.525Z,90.09
2022-10-12T23:26:40.320Z,90.00
2022-10-12T23:29:07.085Z,90.16
2022-10-12T23:31:35.760Z,89.91
2022-10-12T23:34:06.118Z,89.88
2022-10-12T23:36:33.139Z,89.65
2022-10-12T23:39:04.320Z,89.80
2022-10-12T23:41:31.394Z,90.02
2022-10-12T23:43:58.293Z,89.81
2022-10-12T23:46:25.189Z,89.80
2022-10-12T23:48:52.132Z,89.99
2022-10-12T23:51:18.948Z,89.88
2022-10-12T23:53:45.756Z,90.16
2022-10-12T23:56:13.327Z,89.82
2022-10-12T23:58:40.837Z,90.09
